Terminal Aerodrome Forecast
Issued by NWS

Home | Current Version | Previous Version | Text Only | Print | Product List | Glossary On
Versions: 1 2 3 4 5 6 7 8 9 10 11 12
840
FTUS45 KABQ 271740
TAFSAF
TAF
KSAF 271740Z 2718/2818 29012G18KT P6SM SCT070
     FM272000 28015G24KT P6SM VCSH BKN080
      TEMPO 2721/2724 VRB19G30KT
     FM280000 31012G20KT P6SM SCT100
     FM280230 33007KT P6SM FEW100=

USA.gov is the U.S. government's official web portal to all federal, state and local government web resources and services.